Time;durP1;ratioP1;P1;durP2;ratioP2;P2;SDS_P1;SDS_P2;PMS_P1;PMS_P2;Temp;Humidity;BMP_temperature;BMP_pressure;BME280_temperature;BME280_humidity;BME280_pressure;Samples;Min_cycle;Max_cycle;Signal;HPM_P1;HPM_P2
2021/12/31 00:00:31;;;;;;;1.63;0.90;;;19.90;93.90;;;;;;5055112;28;20750;-18
2021/12/31 00:02:57;;;;;;;1.10;0.90;;;19.90;94.00;;;;;;5038259;28;20270;-16
2021/12/31 00:05:23;;;;;;;1.47;0.90;;;19.80;94.00;;;;;;5038221;28;20225;-18
2021/12/31 00:07:49;;;;;;;1.53;0.90;;;19.80;94.10;;;;;;5055452;28;20262;-15
2021/12/31 00:10:15;;;;;;;1.80;0.90;;;19.80;94.20;;;;;;5038398;28;20433;-16
2021/12/31 00:12:42;;;;;;;0.87;0.80;;;19.80;94.20;;;;;;5055456;28;20641;-17
2021/12/31 00:15:09;;;;;;;1.90;1.00;;;19.80;94.30;;;;;;5038885;28;20530;-20
2021/12/31 00:17:35;;;;;;;1.97;1.10;;;19.70;94.30;;;;;;5035090;28;20289;-17
2021/12/31 00:20:08;;;;;;;1.43;1.00;;;19.70;94.40;;;;;;5036083;28;20173;-17
2021/12/31 00:25:12;;;;;;;0.70;0.70;;;19.70;94.40;;;;;;5056182;28;20162;-17
2021/12/31 00:27:38;;;;;;;0.80;0.80;;;19.70;94.40;;;;;;5055912;28;20191;-17
2021/12/31 00:30:05;;;;;;;0.93;0.80;;;19.70;94.50;;;;;;5038951;28;20196;-18
2021/12/31 00:32:31;;;;;;;1.70;0.90;;;19.70;94.50;;;;;;5038820;28;20175;-17
2021/12/31 00:34:57;;;;;;;1.53;0.90;;;19.60;94.60;;;;;;5038799;28;20248;-16
2021/12/31 00:37:34;;;;;;;1.53;1.03;;;19.60;94.60;;;;;;5056029;28;20393;-16
2021/12/31 00:40:00;;;;;;;1.60;0.90;;;19.60;94.70;;;;;;5036680;28;20445;-17
2021/12/31 00:42:26;;;;;;;1.23;1.10;;;19.60;94.80;;;;;;5053265;28;20468;-16
2021/12/31 00:44:52;;;;;;;1.67;0.97;;;19.50;94.80;;;;;;5053656;28;20176;-15
2021/12/31 00:47:19;;;;;;;1.73;0.90;;;19.50;94.80;;;;;;5054833;28;20201;-17
2021/12/31 00:49:45;;;;;;;1.10;1.00;;;19.50;94.80;;;;;;5037704;28;20180;-15
2021/12/31 00:52:11;;;;;;;1.60;1.00;;;19.50;94.90;;;;;;5054374;28;20577;-16
2021/12/31 00:54:38;;;;;;;1.13;1.00;;;19.50;95.20;;;;;;5038251;28;20183;-16
2021/12/31 00:57:06;;;;;;;1.23;0.80;;;19.50;94.90;;;;;;5055416;28;20341;-16
2021/12/31 00:59:32;;;;;;;1.17;1.00;;;19.50;95.00;;;;;;5055402;28;20266;-16
2021/12/31 01:01:59;;;;;;;1.60;0.83;;;19.50;95.00;;;;;;5053580;28;20174;-15
2021/12/31 01:04:25;;;;;;;1.10;0.80;;;19.50;95.00;;;;;;5034993;28;20175;-17
2021/12/31 01:06:51;;;;;;;1.03;0.93;;;19.40;95.00;;;;;;5055387;28;20174;-16
2021/12/31 01:09:17;;;;;;;1.57;0.90;;;19.40;95.00;;;;;;5036055;28;20234;-14
2021/12/31 01:11:46;;;;;;;2.37;1.20;;;19.40;95.00;;;;;;5054957;28;20189;-17
2021/12/31 01:14:54;;;;;;;0.80;0.80;;;19.40;95.00;;;;;;5037473;28;20173;-15
2021/12/31 01:20:18;;;;;;;1.13;0.90;;;19.40;95.10;;;;;;5052757;28;20503;-15
2021/12/31 01:22:45;;;;;;;1.07;0.97;;;19.40;95.10;;;;;;5036601;28;20172;-16
2021/12/31 01:25:12;;;;;;;1.07;0.97;;;19.40;95.20;;;;;;5052907;28;20178;-15
2021/12/31 01:27:40;;;;;;;1.10;0.80;;;19.30;95.10;;;;;;5054324;28;20179;-16
2021/12/31 01:30:09;;;;;;;1.23;0.80;;;19.30;95.20;;;;;;5052745;28;20247;-15
2021/12/31 01:32:35;;;;;;;1.87;1.20;;;19.30;95.20;;;;;;5036534;28;20184;-16
2021/12/31 01:35:02;;;;;;;1.77;1.00;;;19.30;95.20;;;;;;5037114;28;20177;-16
2021/12/31 01:37:28;;;;;;;1.33;0.90;;;19.30;95.20;;;;;;5036809;28;20278;-17
2021/12/31 01:39:54;;;;;;;1.20;1.07;;;19.30;95.20;;;;;;5054582;28;20571;-17
2021/12/31 01:42:27;;;;;;;1.37;0.80;;;19.30;95.20;;;;;;5054104;28;20197;-18
2021/12/31 01:44:59;;;;;;;1.67;0.93;;;19.30;95.40;;;;;;5037366;28;20170;-16
2021/12/31 01:47:55;;;;;;;1.30;0.97;;;19.30;95.30;;;;;;5038829;28;20170;-17
2021/12/31 01:50:27;;;;;;;1.10;1.00;;;19.30;95.30;;;;;;5056909;28;20171;-16
2021/12/31 01:52:54;;;;;;;1.00;0.80;;;19.20;95.30;;;;;;5056800;28;20211;-15
2021/12/31 01:55:22;;;;;;;1.00;0.90;;;19.20;95.30;;;;;;5039767;28;20231;-16
2021/12/31 01:57:49;;;;;;;1.60;0.90;;;19.20;95.30;;;;;;5040042;28;20204;-16
2021/12/31 02:00:15;;;;;;;1.13;0.90;;;19.20;95.40;;;;;;5057361;28;20185;-17
2021/12/31 02:02:45;;;;;;;1.20;0.80;;;19.20;95.30;;;;;;5057230;28;20175;-17
2021/12/31 02:05:12;;;;;;;1.00;1.00;;;19.20;95.40;;;;;;5059739;28;20183;-16
2021/12/31 02:07:38;;;;;;;1.13;0.90;;;19.20;95.40;;;;;;5060673;28;20474;-17
2021/12/31 02:10:04;;;;;;;4.63;1.00;;;19.20;95.40;;;;;;5043662;28;20703;-18
2021/12/31 02:12:30;;;;;;;0.77;0.77;;;19.20;95.40;;;;;;5042687;28;20176;-16
2021/12/31 02:14:59;;;;;;;1.20;0.90;;;19.20;95.50;;;;;;5042921;28;20176;-18
2021/12/31 02:17:24;;;;;;;1.00;0.90;;;19.20;95.50;;;;;;5060874;28;20246;-17
2021/12/31 02:20:04;;;;;;;1.10;0.80;;;19.20;95.50;;;;;;5060881;28;20211;-15
2021/12/31 02:22:31;;;;;;;0.87;0.80;;;19.20;95.50;;;;;;5060848;28;20161;-16
2021/12/31 02:25:00;;;;;;;1.87;1.00;;;19.10;95.40;;;;;;5041505;28;20323;-16
2021/12/31 02:27:27;;;;;;;0.90;0.90;;;19.10;95.50;;;;;;5037473;28;20542;-17
2021/12/31 02:29:52;;;;;;;1.50;1.00;;;19.10;95.50;;;;;;5056447;28;20218;-19
2021/12/31 02:32:18;;;;;;;1.00;0.80;;;19.10;95.50;;;;;;5040058;28;20199;-16
2021/12/31 02:34:44;;;;;;;1.33;0.90;;;19.10;95.50;;;;;;5039951;28;20354;-18
2021/12/31 02:37:11;;;;;;;0.87;0.80;;;19.10;95.50;;;;;;5056583;28;20527;-18
2021/12/31 02:39:39;;;;;;;0.70;0.70;;;19.10;95.50;;;;;;5058113;28;20183;-18
2021/12/31 02:42:06;;;;;;;1.00;0.80;;;19.10;95.60;;;;;;5057252;28;20170;-17
2021/12/31 02:44:32;;;;;;;1.20;0.90;;;19.10;95.60;;;;;;5040618;28;20176;-15
2021/12/31 02:47:02;;;;;;;1.50;0.93;;;19.10;95.60;;;;;;5057515;28;20233;-17
2021/12/31 02:49:29;;;;;;;1.03;0.90;;;19.10;95.60;;;;;;5058294;28;20596;-16
2021/12/31 02:51:59;;;;;;;0.90;0.80;;;19.10;95.60;;;;;;5057991;28;20165;-16
2021/12/31 02:54:28;;;;;;;1.10;1.00;;;19.00;95.50;;;;;;5017671;28;20187;-15
2021/12/31 02:56:54;;;;;;;1.50;0.80;;;19.00;95.60;;;;;;5040946;28;20239;-16
2021/12/31 02:59:20;;;;;;;1.23;0.90;;;19.00;95.60;;;;;;5040170;28;20214;-17
2021/12/31 03:01:46;;;;;;;0.90;0.90;;;19.00;95.60;;;;;;5040632;28;20231;-16
2021/12/31 03:04:14;;;;;;;1.10;1.00;;;19.00;95.60;;;;;;5039809;28;20310;-17
2021/12/31 03:06:43;;;;;;;0.87;0.87;;;19.00;95.60;;;;;;5041263;28;20208;-15
2021/12/31 03:09:10;;;;;;;1.20;0.90;;;19.00;95.60;;;;;;5041043;28;20188;-16
2021/12/31 03:11:37;;;;;;;1.00;0.80;;;19.00;95.60;;;;;;5058099;28;20178;-16
2021/12/31 03:14:06;;;;;;;0.90;0.70;;;19.00;95.60;;;;;;5040621;28;20185;-19
2021/12/31 03:16:32;;;;;;;0.90;0.90;;;19.00;95.60;;;;;;5039279;28;20241;-16
2021/12/31 03:18:58;;;;;;;1.33;1.00;;;19.00;95.60;;;;;;5039338;28;20184;-17
2021/12/31 03:21:24;;;;;;;1.03;0.93;;;19.00;95.60;;;;;;5057292;28;20171;-16
2021/12/31 03:23:52;;;;;;;1.40;0.77;;;19.00;95.60;;;;;;5057887;28;20180;-17
2021/12/31 03:26:20;;;;;;;1.87;1.10;;;19.00;95.60;;;;;;5040390;28;20261;-17
2021/12/31 03:28:46;;;;;;;1.00;0.90;;;19.00;95.60;;;;;;5057138;28;20164;-18
2021/12/31 03:31:11;;;;;;;1.17;0.80;;;18.90;95.60;;;;;;5039890;28;20176;-18
2021/12/31 03:33:37;;;;;;;1.20;0.90;;;18.90;95.60;;;;;;5057479;28;20461;-17
2021/12/31 03:36:03;;;;;;;1.47;1.07;;;18.90;95.60;;;;;;5040263;28;20193;-17
2021/12/31 03:38:29;;;;;;;1.90;0.83;;;18.90;95.60;;;;;;5039883;28;20242;-16
2021/12/31 03:40:54;;;;;;;1.00;0.80;;;18.90;95.60;;;;;;5057214;28;20202;-16
2021/12/31 03:43:20;;;;;;;1.30;1.00;;;18.90;95.70;;;;;;5039363;28;20225;-18
2021/12/31 03:45:50;;;;;;;1.90;0.93;;;18.90;95.70;;;;;;5039588;28;20172;-18
2021/12/31 03:48:16;;;;;;;1.17;0.80;;;18.80;95.60;;;;;;5039713;28;20180;-16
2021/12/31 03:50:42;;;;;;;1.20;0.90;;;18.80;95.60;;;;;;5039634;28;20182;-15
2021/12/31 03:53:08;;;;;;;1.50;1.07;;;18.80;95.70;;;;;;5039448;28;20172;-14
2021/12/31 03:55:34;;;;;;;0.80;0.80;;;18.80;95.70;;;;;;5056001;28;20178;-16
2021/12/31 03:57:59;;;;;;;1.40;0.90;;;18.80;95.70;;;;;;5038691;28;20588;-15
2021/12/31 04:00:28;;;;;;;1.17;0.80;;;18.80;95.70;;;;;;5039096;28;20270;-15
2021/12/31 04:02:58;;;;;;;1.00;0.90;;;19.00;95.80;;;;;;5056751;28;20164;-15
2021/12/31 04:05:27;;;;;;;0.63;0.63;;;21.20;90.40;;;;;;5056625;28;20172;-15
2021/12/31 04:07:53;;;;;;;1.63;0.80;;;22.50;78.10;;;;;;5038484;28;20171;-15
2021/12/31 04:10:18;;;;;;;1.20;0.90;;;22.80;74.10;;;;;;5039154;28;20171;-15
2021/12/31 04:12:44;;;;;;;0.60;0.60;;;22.90;72.00;;;;;;5038703;28;20278;-15
2021/12/31 04:15:10;;;;;;;1.40;0.90;;;22.90;71.70;;;;;;5056741;28;20188;-18
2021/12/31 04:17:36;;;;;;;1.03;0.83;;;22.90;71.40;;;;;;5056621;28;20221;-15
2021/12/31 04:20:01;;;;;;;0.77;0.77;;;22.90;71.00;;;;;;5039127;28;20183;-18
2021/12/31 04:22:30;;;;;;;0.60;0.60;;;23.00;70.70;;;;;;5039453;28;20327;-18
2021/12/31 04:24:55;;;;;;;1.90;0.73;;;23.30;68.70;;;;;;5039203;28;20549;-18
2021/12/31 04:27:22;;;;;;;1.20;0.80;;;23.50;66.80;;;;;;5055179;28;20168;-17
2021/12/31 04:29:52;;;;;;;1.13;0.80;;;23.60;65.70;;;;;;5039029;28;20255;-17
2021/12/31 04:32:23;;;;;;;0.70;0.70;;;23.60;65.40;;;;;;5039459;28;20245;-15
2021/12/31 04:34:49;;;;;;;0.80;0.70;;;23.60;65.70;;;;;;5056179;28;20168;-16
2021/12/31 04:37:15;;;;;;;0.67;0.67;;;23.40;66.00;;;;;;5055816;28;20214;-17
2021/12/31 04:39:40;;;;;;;1.00;0.90;;;23.40;66.30;;;;;;5056034;28;20476;-15
2021/12/31 04:42:06;;;;;;;0.73;0.70;;;23.40;66.60;;;;;;5038984;28;20241;-16
2021/12/31 04:44:32;;;;;;;0.90;0.73;;;23.30;67.00;;;;;;5056968;28;20199;-17
2021/12/31 04:46:58;;;;;;;0.90;0.80;;;23.20;67.40;;;;;;5039107;28;20183;-17
2021/12/31 04:49:23;;;;;;;0.87;0.67;;;23.10;68.20;;;;;;5038271;28;20172;-17
2021/12/31 04:51:49;;;;;;;0.70;0.70;;;23.00;69.00;;;;;;5056303;28;20172;-16
2021/12/31 04:54:16;;;;;;;1.40;1.00;;;23.00;69.40;;;;;;5055854;28;20269;-15
2021/12/31 04:56:43;;;;;;;1.17;0.60;;;23.00;69.60;;;;;;5056515;28;20202;-16
2021/12/31 04:59:10;;;;;;;0.80;0.73;;;22.80;70.70;;;;;;5038954;28;20196;-15
2021/12/31 05:01:36;;;;;;;0.73;0.70;;;22.80;71.20;;;;;;5037695;28;20168;-16
2021/12/31 05:04:02;;;;;;;0.63;0.63;;;22.50;72.30;;;;;;5037630;28;20208;-17
2021/12/31 05:06:27;;;;;;;0.97;0.80;;;22.40;74.00;;;;;;5037703;28;20218;-16
2021/12/31 05:08:53;;;;;;;0.93;0.70;;;22.20;75.10;;;;;;5038739;28;20211;-16
2021/12/31 05:11:19;;;;;;;1.00;0.70;;;22.30;75.00;;;;;;5055420;28;20198;-20
2021/12/31 05:13:46;;;;;;;1.30;0.90;;;22.10;76.30;;;;;;5038523;28;20234;-18
2021/12/31 05:16:12;;;;;;;0.80;0.70;;;21.90;78.30;;;;;;5055496;28;20237;-17
2021/12/31 05:18:37;;;;;;;0.80;0.80;;;21.60;79.90;;;;;;5037586;28;20197;-16
2021/12/31 05:21:04;;;;;;;1.00;0.63;;;21.50;81.50;;;;;;5055729;28;20504;-18
2021/12/31 05:23:30;;;;;;;1.27;0.80;;;21.30;83.00;;;;;;5054836;28;20196;-17
2021/12/31 05:25:56;;;;;;;0.90;0.90;;;21.10;84.70;;;;;;5037579;28;20240;-17
2021/12/31 05:28:21;;;;;;;1.07;0.80;;;21.00;85.90;;;;;;5055071;28;20176;-18
2021/12/31 05:30:47;;;;;;;0.83;0.80;;;20.90;86.90;;;;;;5054469;28;20601;-20
2021/12/31 05:33:13;;;;;;;0.80;0.80;;;20.80;88.40;;;;;;5038053;28;20792;-15
2021/12/31 05:35:38;;;;;;;0.90;0.60;;;20.70;88.40;;;;;;5054778;28;20266;-16
2021/12/31 05:38:04;;;;;;;0.63;0.63;;;20.70;89.20;;;;;;5055384;28;20216;-18
2021/12/31 05:40:30;;;;;;;0.70;0.70;;;20.60;89.30;;;;;;5055033;28;20277;-17
2021/12/31 05:42:55;;;;;;;0.83;0.80;;;20.50;89.70;;;;;;5054729;28;20169;-17
2021/12/31 05:45:21;;;;;;;0.60;0.60;;;20.50;90.10;;;;;;5054286;28;20455;-16
2021/12/31 05:47:48;;;;;;;0.83;0.70;;;20.50;90.20;;;;;;5037133;28;20256;-15
2021/12/31 05:50:29;;;;;;;0.77;0.70;;;20.60;90.00;;;;;;5054993;28;20179;-18
2021/12/31 05:52:59;;;;;;;1.00;0.90;;;20.80;88.80;;;;;;5037780;28;20567;-17
2021/12/31 05:55:26;;;;;;;0.70;0.70;;;21.20;85.10;;;;;;5054020;28;20226;-15
2021/12/31 05:57:55;;;;;;;0.60;0.60;;;21.70;81.40;;;;;;5037194;28;20231;-14
2021/12/31 06:00:22;;;;;;;0.70;0.70;;;22.20;77.20;;;;;;5036690;28;20243;-15
2021/12/31 06:02:48;;;;;;;0.80;0.73;;;22.70;72.70;;;;;;5054775;28;20408;-16
2021/12/31 06:05:14;;;;;;;0.90;0.80;;;23.00;69.50;;;;;;5037121;28;20186;-18
2021/12/31 06:07:40;;;;;;;0.60;0.60;;;23.20;67.50;;;;;;5053730;28;20172;-17
2021/12/31 06:10:06;;;;;;;1.60;0.90;;;23.30;66.20;;;;;;5054551;28;20186;-16
2021/12/31 06:12:34;;;;;;;1.23;0.80;;;23.30;65.70;;;;;;5037692;28;20250;-16
2021/12/31 06:15:03;;;;;;;0.83;0.70;;;23.20;65.90;;;;;;5037857;28;20172;-16
2021/12/31 06:17:29;;;;;;;0.60;0.60;;;23.00;66.50;;;;;;5054316;28;20208;-15
2021/12/31 06:19:55;;;;;;;0.50;0.50;;;22.90;67.30;;;;;;5037396;28;20509;-17
2021/12/31 06:22:22;;;;;;;0.97;0.83;;;22.90;67.50;;;;;;5036702;28;20566;-16
2021/12/31 06:24:48;;;;;;;0.77;0.70;;;22.80;68.10;;;;;;5037319;28;20180;-17
2021/12/31 06:27:14;;;;;;;0.80;0.80;;;22.70;68.80;;;;;;5037024;28;20455;-16
2021/12/31 06:29:40;;;;;;;0.63;0.63;;;22.60;69.30;;;;;;5036851;28;20305;-16
2021/12/31 06:32:06;;;;;;;0.73;0.73;;;22.60;70.10;;;;;;5037535;28;20276;-15
2021/12/31 06:34:31;;;;;;;0.97;0.70;;;22.50;70.70;;;;;;5055596;28;20189;-18
2021/12/31 06:36:58;;;;;;;0.70;0.63;;;22.30;71.80;;;;;;5054829;28;20616;-18
2021/12/31 06:39:26;;;;;;;0.80;0.80;;;22.20;72.90;;;;;;5052881;28;20494;-17
2021/12/31 06:41:51;;;;;;;0.83;0.80;;;22.10;74.00;;;;;;5037289;28;20278;-16
2021/12/31 06:44:18;;;;;;;0.87;0.70;;;21.90;74.90;;;;;;5037068;28;20275;-17
2021/12/31 06:46:44;;;;;;;0.87;0.70;;;21.90;75.90;;;;;;5037123;28;20181;-15
2021/12/31 06:49:09;;;;;;;0.70;0.60;;;21.70;76.60;;;;;;5036795;28;20254;-16
2021/12/31 06:51:35;;;;;;;0.73;0.67;;;21.60;77.50;;;;;;5038781;28;20225;-17
2021/12/31 06:54:01;;;;;;;0.80;0.70;;;21.50;78.50;;;;;;5041098;28;20203;-17
2021/12/31 06:56:27;;;;;;;1.67;0.70;;;21.50;79.00;;;;;;5057251;28;20234;-20
2021/12/31 06:58:53;;;;;;;0.60;0.60;;;21.30;79.80;;;;;;5039180;28;20172;-16
2021/12/31 07:01:19;;;;;;;0.70;0.70;;;21.20;80.70;;;;;;5039817;28;20204;-16
2021/12/31 07:03:44;;;;;;;0.83;0.80;;;21.20;81.20;;;;;;5039362;28;20237;-16
2021/12/31 07:06:10;;;;;;;0.70;0.70;;;21.20;81.60;;;;;;5057394;28;20168;-17
2021/12/31 07:08:38;;;;;;;0.63;0.60;;;21.10;82.10;;;;;;5056640;28;20640;-18
2021/12/31 07:11:04;;;;;;;1.27;0.70;;;21.00;82.50;;;;;;5057027;28;20180;-15
2021/12/31 07:13:29;;;;;;;0.63;0.63;;;21.00;83.30;;;;;;5039952;28;20642;-16
2021/12/31 07:15:55;;;;;;;1.10;0.90;;;20.90;84.00;;;;;;5056889;28;20194;-17
2021/12/31 07:18:23;;;;;;;0.73;0.73;;;20.80;84.40;;;;;;5039275;28;20214;-16
2021/12/31 07:20:49;;;;;;;1.20;0.70;;;20.80;84.90;;;;;;5057519;28;20178;-17
2021/12/31 07:23:18;;;;;;;1.13;0.80;;;20.70;85.30;;;;;;5039160;28;20257;-18
2021/12/31 07:25:45;;;;;;;0.90;0.87;;;20.70;85.90;;;;;;5056848;28;20442;-17
2021/12/31 07:28:12;;;;;;;1.03;0.80;;;20.60;86.50;;;;;;5056368;28;20172;-17
2021/12/31 07:30:38;;;;;;;1.93;0.70;;;20.50;86.80;;;;;;5056622;28;20653;-16
2021/12/31 07:33:05;;;;;;;0.50;0.50;;;20.60;86.70;;;;;;5056947;28;20288;-15
2021/12/31 07:35:31;;;;;;;1.07;0.90;;;20.70;85.40;;;;;;5039023;28;20184;-15
2021/12/31 07:37:59;;;;;;;0.70;0.70;;;20.90;83.90;;;;;;5037647;28;20291;-16
2021/12/31 07:40:37;;;;;;;0.70;0.70;;;21.20;81.70;;;;;;5038772;28;20176;-16
2021/12/31 07:43:03;;;;;;;0.73;0.73;;;21.50;78.70;;;;;;5056753;28;20445;-16
2021/12/31 07:45:29;;;;;;;0.80;0.80;;;21.80;75.70;;;;;;5038609;28;20210;-16
2021/12/31 07:47:54;;;;;;;0.83;0.80;;;22.20;73.00;;;;;;5055555;28;20205;-18
2021/12/31 07:50:20;;;;;;;0.60;0.60;;;22.50;70.40;;;;;;5056144;28;20279;-17
2021/12/31 07:52:46;;;;;;;0.70;0.70;;;22.60;68.50;;;;;;5055657;28;20253;-17
2021/12/31 07:55:12;;;;;;;1.37;0.90;;;22.80;67.30;;;;;;5038088;28;20203;-15
2021/12/31 07:57:38;;;;;;;0.80;0.80;;;23.00;65.70;;;;;;5055267;28;20638;-16
2021/12/31 08:00:05;;;;;;;0.87;0.80;;;23.20;64.00;;;;;;5037760;28;20210;-17
2021/12/31 08:02:31;;;;;;;0.73;0.70;;;23.40;62.70;;;;;;5053695;28;20160;-17
2021/12/31 08:04:57;;;;;;;1.30;0.90;;;23.40;61.60;;;;;;5036818;28;20230;-16
2021/12/31 08:07:22;;;;;;;1.23;1.00;;;23.50;61.30;;;;;;5054169;28;20172;-16
2021/12/31 08:09:48;;;;;;;0.80;0.70;;;23.30;61.40;;;;;;5037549;28;20496;-17
2021/12/31 08:12:14;;;;;;;0.97;0.80;;;23.20;62.10;;;;;;5054348;28;20174;-17
2021/12/31 08:14:39;;;;;;;0.73;0.70;;;23.10;63.30;;;;;;5037562;28;20180;-16
2021/12/31 08:17:05;;;;;;;0.83;0.80;;;22.90;64.10;;;;;;5054500;28;20204;-16
2021/12/31 08:19:31;;;;;;;0.93;0.80;;;22.70;65.10;;;;;;5036691;28;20290;-19
2021/12/31 08:21:56;;;;;;;0.67;0.67;;;22.60;66.00;;;;;;5054131;28;20186;-19
2021/12/31 08:24:22;;;;;;;0.97;0.70;;;22.40;67.50;;;;;;5054485;28;20735;-18
2021/12/31 08:26:48;;;;;;;1.00;0.80;;;22.20;68.70;;;;;;5036260;28;20249;-18
2021/12/31 08:29:15;;;;;;;0.70;0.70;;;22.10;69.80;;;;;;5035715;28;20183;-18
2021/12/31 08:31:41;;;;;;;0.83;0.60;;;21.90;71.10;;;;;;5036342;28;20672;-16
2021/12/31 08:34:08;;;;;;;1.53;1.00;;;21.80;72.50;;;;;;5053986;28;20266;-15
2021/12/31 08:36:35;;;;;;;0.83;0.83;;;21.60;73.90;;;;;;5053765;28;20631;-16
2021/12/31 08:39:01;;;;;;;0.97;0.87;;;21.50;75.10;;;;;;5053969;28;20179;-16
2021/12/31 08:41:27;;;;;;;0.90;0.70;;;21.30;76.70;;;;;;5036027;28;20176;-16
2021/12/31 08:43:53;;;;;;;1.07;0.80;;;21.30;77.40;;;;;;5054026;28;20168;-16
2021/12/31 08:46:18;;;;;;;0.77;0.77;;;21.10;78.80;;;;;;5035997;28;20172;-16
2021/12/31 08:48:44;;;;;;;0.70;0.63;;;20.90;80.50;;;;;;5053089;28;20200;-16
2021/12/31 08:51:09;;;;;;;0.90;0.80;;;20.90;80.60;;;;;;5053919;28;20172;-20
2021/12/31 08:53:35;;;;;;;0.83;0.83;;;20.80;81.10;;;;;;5036049;28;20585;-18
2021/12/31 08:56:01;;;;;;;1.07;0.90;;;20.80;81.50;;;;;;5034872;28;20520;-15
2021/12/31 08:58:27;;;;;;;1.00;0.70;;;20.70;82.50;;;;;;5053440;28;20210;-18
2021/12/31 09:00:52;;;;;;;1.17;0.90;;;20.60;83.50;;;;;;5035328;28;20345;-17
2021/12/31 09:03:18;;;;;;;0.80;0.80;;;20.60;83.70;;;;;;5034267;28;20193;-16
2021/12/31 09:05:44;;;;;;;1.00;0.90;;;21.10;79.90;;;;;;5052655;28;20519;-17
2021/12/31 09:08:09;;;;;;;1.40;0.80;;;21.60;75.20;;;;;;5052655;28;20182;-19
2021/12/31 09:10:35;;;;;;;1.40;0.80;;;21.90;72.70;;;;;;5052615;28;20172;-15
2021/12/31 09:13:01;;;;;;;1.40;1.10;;;22.40;69.30;;;;;;5051896;28;20176;-18
2021/12/31 09:15:26;;;;;;;0.87;0.80;;;22.90;65.80;;;;;;5048642;28;20290;-15
2021/12/31 09:17:55;;;;;;;1.40;0.90;;;23.30;62.20;;;;;;5050985;28;20231;-16
2021/12/31 09:20:20;;;;;;;2.87;1.00;;;23.60;59.80;;;;;;5034092;28;20176;-18
2021/12/31 09:22:47;;;;;;;2.20;0.90;;;23.90;58.90;;;;;;5034432;28;20180;-16
2021/12/31 09:25:13;;;;;;;0.87;0.70;;;24.00;58.30;;;;;;5033428;28;20187;-15
2021/12/31 09:27:39;;;;;;;0.80;0.80;;;24.20;57.60;;;;;;5050907;28;20161;-15
2021/12/31 09:30:05;;;;;;;0.90;0.80;;;24.30;57.00;;;;;;5052013;28;20184;-15
2021/12/31 09:32:31;;;;;;;1.40;1.00;;;24.30;57.00;;;;;;5033972;28;20565;-17
2021/12/31 09:34:58;;;;;;;1.10;1.00;;;24.30;57.00;;;;;;5052095;28;20249;-17
2021/12/31 09:37:24;;;;;;;1.27;1.00;;;24.20;56.90;;;;;;5051000;28;20206;-15
2021/12/31 09:39:50;;;;;;;1.77;0.83;;;24.10;57.30;;;;;;5051854;28;20416;-16
2021/12/31 09:42:16;;;;;;;1.03;0.80;;;23.90;57.90;;;;;;5032811;28;20546;-16
2021/12/31 09:44:46;;;;;;;0.83;0.73;;;23.70;58.70;;;;;;5051254;28;20195;-17
2021/12/31 09:47:13;;;;;;;0.80;0.80;;;23.40;59.50;;;;;;5033428;28;20267;-15
2021/12/31 09:49:40;;;;;;;1.50;0.87;;;23.30;60.00;;;;;;5032823;28;20558;-18
2021/12/31 09:52:12;;;;;;;1.30;0.90;;;23.20;61.20;;;;;;5049809;28;20276;-16
2021/12/31 09:54:43;;;;;;;1.10;0.90;;;23.00;62.60;;;;;;5031757;28;20190;-17
2021/12/31 09:57:14;;;;;;;1.27;1.00;;;23.00;63.30;;;;;;5049701;28;20207;-16
2021/12/31 09:59:41;;;;;;;1.63;0.83;;;22.80;64.90;;;;;;5049937;28;20499;-16
2021/12/31 10:02:09;;;;;;;1.03;0.80;;;22.50;67.10;;;;;;5032126;28;20183;-16
2021/12/31 10:05:01;;;;;;;1.50;0.90;;;22.30;69.10;;;;;;5032225;28;20267;-15
2021/12/31 10:07:30;;;;;;;3.33;0.90;;;22.10;71.00;;;;;;5047362;28;20176;-16
2021/12/31 10:10:11;;;;;;;1.63;0.80;;;22.00;72.30;;;;;;5032539;28;20180;-17
2021/12/31 10:12:56;;;;;;;1.50;0.90;;;21.90;73.20;;;;;;5030989;28;20183;-18
2021/12/31 10:15:26;;;;;;;4.37;1.00;;;21.70;75.00;;;;;;5050801;28;20566;-17
2021/12/31 10:17:53;;;;;;;0.97;0.70;;;21.60;75.70;;;;;;5020685;28;20277;-18
2021/12/31 10:20:20;;;;;;;2.43;1.10;;;21.50;77.30;;;;;;5038766;28;20171;-17
2021/12/31 10:22:47;;;;;;;1.50;0.90;;;21.30;79.00;;;;;;5035653;28;20723;-18
2021/12/31 10:25:21;;;;;;;2.00;0.93;;;21.20;80.60;;;;;;5033001;28;20164;-17
2021/12/31 10:27:49;;;;;;;3.50;1.20;;;21.00;82.00;;;;;;5053452;28;20176;-15
2021/12/31 10:30:22;;;;;;;2.73;1.20;;;20.90;83.20;;;;;;5034435;28;20176;-16
2021/12/31 10:32:48;;;;;;;1.77;1.17;;;21.00;82.60;;;;;;5034347;28;20274;-16
2021/12/31 10:35:22;;;;;;;1.57;0.90;;;21.30;81.30;;;;;;5053433;28;20271;-17
2021/12/31 10:37:57;;;;;;;3.67;1.20;;;21.50;79.00;;;;;;5034029;28;20219;-16
2021/12/31 10:40:28;;;;;;;2.77;1.10;;;21.80;77.50;;;;;;5034632;28;20164;-18
2021/12/31 10:43:16;;;;;;;1.60;1.03;;;22.20;73.40;;;;;;5051731;28;20165;-17
2021/12/31 10:46:05;;;;;;;1.73;1.00;;;22.60;69.80;;;;;;5035489;28;20203;-16
2021/12/31 10:48:43;;;;;;;2.47;1.03;;;23.00;66.40;;;;;;5052654;28;20462;-17
2021/12/31 10:51:14;;;;;;;7.40;1.27;;;23.40;63.50;;;;;;5052013;28;20175;-18
2021/12/31 10:53:41;;;;;;;1.37;1.00;;;23.60;61.40;;;;;;5052459;28;20263;-15
2021/12/31 10:56:10;;;;;;;3.57;1.00;;;23.70;60.00;;;;;;5035418;28;20172;-16
2021/12/31 10:58:38;;;;;;;2.97;1.10;;;23.70;59.60;;;;;;5052262;28;20199;-16
2021/12/31 11:01:10;;;;;;;7.30;1.50;;;23.70;59.70;;;;;;5034768;28;20172;-16
2021/12/31 11:03:37;;;;;;;2.57;1.10;;;23.60;59.80;;;;;;5053103;28;20164;-16
2021/12/31 11:06:04;;;;;;;1.57;0.80;;;23.60;59.80;;;;;;5053181;28;20240;-17
2021/12/31 11:08:32;;;;;;;1.80;1.10;;;23.40;60.30;;;;;;5052537;28;20447;-17
2021/12/31 11:10:58;;;;;;;2.47;1.03;;;23.40;60.80;;;;;;5052005;28;20165;-17
2021/12/31 11:13:30;;;;;;;1.43;0.90;;;23.20;61.60;;;;;;5051822;28;20172;-16
2021/12/31 11:15:58;;;;;;;1.27;1.00;;;23.00;62.40;;;;;;5033081;28;20171;-17
2021/12/31 11:18:24;;;;;;;1.23;0.90;;;22.80;63.50;;;;;;5050395;28;20641;-17
2021/12/31 11:20:52;;;;;;;3.00;1.13;;;22.60;65.10;;;;;;5033258;28;20362;-17
2021/12/31 11:23:24;;;;;;;3.87;1.23;;;22.40;66.40;;;;;;5050662;28;20164;-19
2021/12/31 11:25:51;;;;;;;2.17;1.00;;;22.30;68.10;;;;;;5050283;28;20347;-15
2021/12/31 11:28:31;;;;;;;2.40;1.10;;;22.10;69.20;;;;;;5032610;28;20246;-15
2021/12/31 11:31:20;;;;;;;2.53;1.10;;;22.00;70.30;;;;;;5030435;28;20175;-16
2021/12/31 11:33:58;;;;;;;3.77;1.30;;;21.80;71.80;;;;;;5051231;28;20259;-16
2021/12/31 11:36:39;;;;;;;1.27;1.00;;;21.50;74.00;;;;;;5050205;28;20182;-15
2021/12/31 11:39:16;;;;;;;2.27;1.00;;;21.30;76.10;;;;;;5051249;28;20229;-18
2021/12/31 11:41:43;;;;;;;4.83;1.23;;;21.10;78.40;;;;;;5050558;28;20563;-17
2021/12/31 11:44:13;;;;;;;6.27;1.30;;;20.80;81.70;;;;;;5033360;28;20172;-16
2021/12/31 11:46:41;;;;;;;3.40;1.20;;;20.70;83.50;;;;;;5033093;28;20183;-16
2021/12/31 11:49:21;;;;;;;1.90;1.20;;;20.60;84.30;;;;;;5051315;28;20627;-17
2021/12/31 11:52:04;;;;;;;2.10;1.20;;;20.50;84.90;;;;;;5032845;28;20248;-15
2021/12/31 11:54:30;;;;;;;7.60;1.33;;;20.60;84.60;;;;;;5032840;28;20426;-15
2021/12/31 11:57:02;;;;;;;5.63;1.37;;;20.80;83.40;;;;;;5033738;28;20293;-16
2021/12/31 11:59:33;;;;;;;4.90;1.10;;;21.00;81.40;;;;;;5050550;28;20165;-16
2021/12/31 12:02:09;;;;;;;7.87;1.60;;;21.20;79.70;;;;;;5050799;28;20174;-16
2021/12/31 12:04:40;;;;;;;1.47;1.13;;;21.50;77.00;;;;;;5056746;28;20241;-15
2021/12/31 12:07:26;;;;;;;1.63;1.00;;;22.00;73.80;;;;;;5057880;28;20163;-17
2021/12/31 12:09:51;;;;;;;2.03;1.10;;;22.30;70.80;;;;;;5037287;28;20171;-16
2021/12/31 12:12:31;;;;;;;4.23;1.20;;;22.90;66.60;;;;;;5051371;28;20241;-16
2021/12/31 12:15:02;;;;;;;3.97;1.20;;;23.20;63.40;;;;;;5050260;28;20175;-18
2021/12/31 12:17:31;;;;;;;4.37;1.63;;;23.60;61.00;;;;;;5050155;28;20227;-15
2021/12/31 12:20:02;;;;;;;5.37;1.37;;;23.70;59.60;;;;;;5033970;28;20184;-15
2021/12/31 12:22:38;;;;;;;3.27;1.23;;;23.80;59.00;;;;;;5033621;28;20181;-17
2021/12/31 12:25:07;;;;;;;2.97;0.93;;;23.70;59.10;;;;;;5051589;28;20518;-15
2021/12/31 12:27:34;;;;;;;2.40;1.27;;;23.70;59.30;;;;;;5033444;28;20183;-17
2021/12/31 12:30:03;;;;;;;2.87;1.20;;;23.50;59.60;;;;;;5033813;28;20169;-17
2021/12/31 12:32:52;;;;;;;1.80;1.00;;;23.50;59.90;;;;;;5034041;28;20184;-17
2021/12/31 12:35:21;;;;;;;3.47;1.10;;;23.30;60.60;;;;;;5033306;28;20263;-16
2021/12/31 12:37:58;;;;;;;2.47;1.10;;;23.20;61.30;;;;;;5050370;28;20192;-17
2021/12/31 12:40:46;;;;;;;2.17;1.27;;;23.10;62.10;;;;;;5051341;28;20202;-17
2021/12/31 12:43:30;;;;;;;4.13;1.20;;;22.90;63.20;;;;;;5050988;28;20233;-18
2021/12/31 12:46:01;;;;;;;2.93;1.10;;;22.80;64.40;;;;;;5034276;28;20323;-16
2021/12/31 12:48:42;;;;;;;3.30;1.30;;;22.70;65.30;;;;;;5033514;28;20512;-18
2021/12/31 12:51:11;;;;;;;3.63;1.10;;;22.50;66.70;;;;;;5050419;28;20168;-15
2021/12/31 12:53:45;;;;;;;3.63;1.10;;;22.40;68.00;;;;;;5034403;28;20200;-16
2021/12/31 12:56:13;;;;;;;2.43;1.20;;;22.20;69.40;;;;;;5034078;28;20191;-16
2021/12/31 12:58:48;;;;;;;2.50;1.03;;;22.00;71.00;;;;;;5033086;28;20204;-16